Spragge, Canada
Current Conditions -  °F | °C
As of 11:00 AM on Thursday 30 Oct 2014 (Local Time) from CYZE Reporting Station
Overcast Overcast  
Wind Chill: 39°   Ceiling: 2500
Heat Index: 39°   Visibility: 9mi
Dew Point: 32°   Wind: 2mph
Humidity: 75%   Direction: 230°SW
Pressure: 30.08"   Gusts: NA
Location:  46.21°N, 82.66°W
Report Text: CYZE 301500Z AUTO 23002KT 9SM BKN025 OVC060 04/M00 A3008 RMK SLP191
Loading
Personal Weather Stations






























Interactive Weather Map
Tropical Storm Tracking
New forecast layout! Learn more

10-Day Weather Forecast

Advertisements
Track Severe Weather on mobile